Terminal Aerodrome Forecast
Issued by NWS

Current Version | Previous Version | Text Only | Print | Product List | Glossary Off
Versions: 1 2 3 4 5 6 7 8 9 10 11 12 13 14

000
FTUS41 KPBZ 262324
TAFHLG
TAF
KHLG 262324Z 2700/2724 26009KT P6SM BKN100
     FM270500 22005KT P6SM VCSH BKN100
     FM270800 22006KT P6SM BKN080
     FM271000 24005KT P6SM SCT080=

USA.gov is the U.S. government's official web portal to all federal, state and local government web resources and services.